Main page
METAR-TAF:

METAR-TAF

Airports :

Cerklje ob Krki Airport

Cerklje ob Krki, Slovenia

latitude: 45-53-59N, longitude: 15-30-55E, elevation: 157 m

Current weather observation

The report was made 26 minutes ago, at 13:00 UTC
Wind 8 kt from the East/Northeast, varying between North/Northeast and East/Southeast
Temperature 21°C
Humidity 28%
Pressure 1020 hPa
Visibility 10 km or more
no clouds below 1500 m and no cumulonimbus

METAR: LJCE 211300Z 07008KT 020V110 CAVOK 21/02 Q1020 RMK BLU

Time: 15:26 (13:26 UTC)

Forecast

The report was made 2 hours and 26 minutes ago, at 11:00 UTC
Forecast valid from 21 at 12 UTC to 21 at 21 UTC
Wind 5 kt from the East
Visibility 10 km or more
no clouds below 1500 m and no cumulonimbus
Becoming
from 21 at 18 UTC to 21 at 20 UTC
Wind 2 kt from variable directions

TAF: LJCE 211100Z 2112/2121 08005KT CAVOK BECMG 2118/2120 VRB02KT

Weather observations and forecasts of more than 4000 airports (METAR and TAF reports).

The available stations are represented by yellow and red dots on the map.

Hover mouse over dot to see the name of the station.

Then click to see weather observations and forecasts.

To change the map : click on the green buttons with a black cross to zoom in, on the green button with a dash to zoom out, or on the green arrows for adjacent maps.


METAR-TAF: